sensor_id;sensor_type;location;lat;lon;timestamp;pressure;altitude;pressure_sealevel;temperature;humidity
70921;BME280;58572;48.110;19.838;2022-09-27T00:02:23;96650.97;;;10.22;92.75
70921;BME280;58572;48.110;19.838;2022-09-27T00:04:51;96654.91;;;10.16;89.90
70921;BME280;58572;48.110;19.838;2022-09-27T00:07:20;96640.22;;;10.17;83.52
70921;BME280;58572;48.110;19.838;2022-09-27T00:09:47;96643.41;;;10.19;74.10
70921;BME280;58572;48.110;19.838;2022-09-27T00:12:14;96641.72;;;10.23;66.02
70921;BME280;58572;48.110;19.838;2022-09-27T00:14:41;96637.56;;;10.26;53.99
70921;BME280;58572;48.110;19.838;2022-09-27T00:17:08;96621.69;;;10.19;54.59
70921;BME280;58572;48.110;19.838;2022-09-27T00:19:35;96631.97;;;10.22;53.94
70921;BME280;58572;48.110;19.838;2022-09-27T00:22:04;96631.97;;;10.22;49.51
70921;BME280;58572;48.110;19.838;2022-09-27T00:24:31;96624.63;;;10.23;42.95
70921;BME280;58572;48.110;19.838;2022-09-27T00:26:58;96618.97;;;10.19;42.88
70921;BME280;58572;48.110;19.838;2022-09-27T00:29:25;96613.75;;;10.23;42.96
70921;BME280;58572;48.110;19.838;2022-09-27T00:31:52;96608.81;;;10.25;42.51
70921;BME280;58572;48.110;19.838;2022-09-27T00:34:22;96613.53;;;10.19;42.81
70921;BME280;58572;48.110;19.838;2022-09-27T00:36:50;96618.69;;;10.21;43.06
70921;BME280;58572;48.110;19.838;2022-09-27T00:39:18;96610.81;;;10.19;42.89
70921;BME280;58572;48.110;19.838;2022-09-27T00:41:45;96605.53;;;10.14;43.15
70921;BME280;58572;48.110;19.838;2022-09-27T00:47:18;96592.75;;;10.15;43.04
70921;BME280;58572;48.110;19.838;2022-09-27T00:49:53;96603.59;;;10.37;90.05
70921;BME280;58572;48.110;19.838;2022-09-27T00:52:25;96589.28;;;10.54;90.78
70921;BME280;58572;48.110;19.838;2022-09-27T00:54:59;96592.50;;;10.56;90.27
70921;BME280;58572;48.110;19.838;2022-09-27T00:57:28;96593.75;;;10.50;89.73
70921;BME280;58572;48.110;19.838;2022-09-27T00:59:59;96532.84;;;10.11;89.37
70921;BME280;58572;48.110;19.838;2022-09-27T01:02:28;96600.00;;;10.50;88.86
70921;BME280;58572;48.110;19.838;2022-09-27T01:04:56;96592.16;;;10.49;89.17
70921;BME280;58572;48.110;19.838;2022-09-27T01:07:23;96583.53;;;10.47;89.36
70921;BME280;58572;48.110;19.838;2022-09-27T01:09:50;96461.41;;;9.63;88.62
70921;BME280;58572;48.110;19.838;2022-09-27T01:12:22;96582.06;;;10.41;88.89
70921;BME280;58572;48.110;19.838;2022-09-27T01:15:03;96576.09;;;10.39;88.15
70921;BME280;58572;48.110;19.838;2022-09-27T01:17:43;96577.22;;;10.38;88.77
70921;BME280;58572;48.110;19.838;2022-09-27T01:20:28;96570.38;;;10.40;88.03
70921;BME280;58572;48.110;19.838;2022-09-27T01:26:12;96564.25;;;10.35;88.36
70921;BME280;58572;48.110;19.838;2022-09-27T01:28:54;96558.84;;;10.35;87.90
70921;BME280;58572;48.110;19.838;2022-09-27T01:31:29;96562.66;;;10.34;87.47
70921;BME280;58572;48.110;19.838;2022-09-27T01:34:04;96549.84;;;10.26;87.87
70921;BME280;58572;48.110;19.838;2022-09-27T01:36:40;96557.84;;;10.31;87.69
70921;BME280;58572;48.110;19.838;2022-09-27T01:39:18;96556.56;;;10.28;87.53
70921;BME280;58572;48.110;19.838;2022-09-27T01:41:52;96521.13;;;10.02;87.59
70921;BME280;58572;48.110;19.838;2022-09-27T01:44:27;96557.69;;;10.27;87.73
70921;BME280;58572;48.110;19.838;2022-09-27T01:47:00;96553.06;;;10.28;87.43
70921;BME280;58572;48.110;19.838;2022-09-27T01:49:32;96554.78;;;10.23;87.92
70921;BME280;58572;48.110;19.838;2022-09-27T01:52:04;96561.94;;;10.19;87.31
70921;BME280;58572;48.110;19.838;2022-09-27T01:54:37;96551.06;;;10.19;88.04
70921;BME280;58572;48.110;19.838;2022-09-27T01:57:06;96551.06;;;10.19;87.48
70921;BME280;58572;48.110;19.838;2022-09-27T01:59:39;96539.94;;;10.21;87.15
70921;BME280;58572;48.110;19.838;2022-09-27T02:02:10;96549.19;;;10.20;87.38
70921;BME280;58572;48.110;19.838;2022-09-27T02:04:39;96532.06;;;10.19;86.95
70921;BME280;58572;48.110;19.838;2022-09-27T02:07:10;96526.63;;;10.19;87.78
70921;BME280;58572;48.110;19.838;2022-09-27T02:09:41;96533.69;;;10.20;87.10
70921;BME280;58572;48.110;19.838;2022-09-27T02:12:15;96532.38;;;10.18;87.29
70921;BME280;58572;48.110;19.838;2022-09-27T02:14:46;96529.50;;;10.14;87.31
70921;BME280;58572;48.110;19.838;2022-09-27T02:17:22;96529.81;;;10.13;87.41
70921;BME280;58572;48.110;19.838;2022-09-27T02:19:54;96519.13;;;10.16;87.05
70921;BME280;58572;48.110;19.838;2022-09-27T02:22:31;96517.16;;;10.08;86.97
70921;BME280;58572;48.110;19.838;2022-09-27T02:25:06;96534.91;;;10.14;87.46
70921;BME280;58572;48.110;19.838;2022-09-27T02:27:39;96513.34;;;10.09;86.75
70921;BME280;58572;48.110;19.838;2022-09-27T02:30:13;96520.38;;;10.10;87.43
70921;BME280;58572;48.110;19.838;2022-09-27T02:32:42;96466.56;;;9.73;87.11
70921;BME280;58572;48.110;19.838;2022-09-27T02:35:14;96522.59;;;10.08;86.84
70921;BME280;58572;48.110;19.838;2022-09-27T02:37:42;96517.47;;;10.07;86.86
70921;BME280;58572;48.110;19.838;2022-09-27T02:40:10;96522.13;;;10.06;86.92
70921;BME280;58572;48.110;19.838;2022-09-27T02:42:38;96395.47;;;9.31;86.71
70921;BME280;58572;48.110;19.838;2022-09-27T02:45:08;96514.44;;;10.08;86.49
70921;BME280;58572;48.110;19.838;2022-09-27T02:47:58;96514.91;;;10.02;87.14
70921;BME280;58572;48.110;19.838;2022-09-27T02:50:43;96512.38;;;10.05;87.02
70921;BME280;58572;48.110;19.838;2022-09-27T02:53:24;96510.75;;;10.04;86.92
70921;BME280;58572;48.110;19.838;2022-09-27T02:56:00;96506.75;;;10.02;86.56
70921;BME280;58572;48.110;19.838;2022-09-27T02:58:36;96514.09;;;10.01;87.00
70921;BME280;58572;48.110;19.838;2022-09-27T03:01:11;96513.78;;;10.03;86.42
70921;BME280;58572;48.110;19.838;2022-09-27T03:03:48;96511.38;;;10.01;86.57
70921;BME280;58572;48.110;19.838;2022-09-27T03:06:19;96511.38;;;10.01;86.66
70921;BME280;58572;48.110;19.838;2022-09-27T03:08:48;96487.72;;;9.93;86.46
70921;BME280;58572;48.110;19.838;2022-09-27T03:11:16;96480.84;;;9.87;86.67
70921;BME280;58572;48.110;19.838;2022-09-27T03:13:44;96380.09;;;9.18;86.59
70921;BME280;58572;48.110;19.838;2022-09-27T03:16:11;96494.00;;;10.02;86.86
70921;BME280;58572;48.110;19.838;2022-09-27T03:18:40;96447.06;;;9.71;86.98
70921;BME280;58572;48.110;19.838;2022-09-27T03:21:09;96490.47;;;10.02;87.16
70921;BME280;58572;48.110;19.838;2022-09-27T03:23:36;96490.97;;;10.04;86.63
70921;BME280;58572;48.110;19.838;2022-09-27T03:26:03;96488.06;;;10.00;86.71
70921;BME280;58572;48.110;19.838;2022-09-27T03:28:30;96473.84;;;9.95;87.14
70921;BME280;58572;48.110;19.838;2022-09-27T03:30:57;96479.44;;;9.98;87.70
70921;BME280;58572;48.110;19.838;2022-09-27T03:33:24;96479.59;;;10.02;86.74
70921;BME280;58572;48.110;19.838;2022-09-27T03:35:51;96478.81;;;10.01;86.56
70921;BME280;58572;48.110;19.838;2022-09-27T03:38:20;96469.06;;;10.00;86.66
70921;BME280;58572;48.110;19.838;2022-09-27T03:40:47;96468.44;;;10.03;86.66
70921;BME280;58572;48.110;19.838;2022-09-27T03:43:14;96478.81;;;10.01;87.11
70921;BME280;58572;48.110;19.838;2022-09-27T03:45:42;96466.84;;;10.02;87.07
70921;BME280;58572;48.110;19.838;2022-09-27T03:48:10;96455.50;;;10.00;86.95
70921;BME280;58572;48.110;19.838;2022-09-27T03:50:37;96459.31;;;9.99;86.61
70921;BME280;58572;48.110;19.838;2022-09-27T03:53:04;96426.84;;;9.85;86.77
70921;BME280;58572;48.110;19.838;2022-09-27T03:55:33;96453.88;;;9.99;86.44
70921;BME280;58572;48.110;19.838;2022-09-27T03:58:00;96453.41;;;9.97;86.61
70921;BME280;58572;48.110;19.838;2022-09-27T04:00:27;96460.09;;;9.91;87.45
70921;BME280;58572;48.110;19.838;2022-09-27T04:02:57;96455.78;;;9.90;87.53
70921;BME280;58572;48.110;19.838;2022-09-27T04:05:25;96448.59;;;9.94;87.24
70921;BME280;58572;48.110;19.838;2022-09-27T04:07:52;96456.03;;;9.71;88.79
70921;BME280;58572;48.110;19.838;2022-09-27T04:10:19;96367.03;;;9.20;88.42
70921;BME280;58572;48.110;19.838;2022-09-27T04:12:48;96458.28;;;9.78;87.91
70921;BME280;58572;48.110;19.838;2022-09-27T04:15:15;96451.75;;;9.79;87.71
70921;BME280;58572;48.110;19.838;2022-09-27T04:17:42;96458.00;;;9.88;87.43
70921;BME280;58572;48.110;19.838;2022-09-27T04:20:10;96456.41;;;9.87;86.90
70921;BME280;58572;48.110;19.838;2022-09-27T04:22:38;96454.81;;;9.86;87.17
70921;BME280;58572;48.110;19.838;2022-09-27T04:25:07;96452.09;;;9.86;86.84
70921;BME280;58572;48.110;19.838;2022-09-27T04:27:34;96455.44;;;9.83;87.00
70921;BME280;58572;48.110;19.838;2022-09-27T04:30:04;96428.81;;;9.01;89.06
70921;BME280;58572;48.110;19.838;2022-09-27T04:32:31;96457.41;;;9.60;88.44
70921;BME280;58572;48.110;19.838;2022-09-27T04:34:58;96459.09;;;9.78;87.37
70921;BME280;58572;48.110;19.838;2022-09-27T04:37:43;96432.06;;;9.65;86.91
70921;BME280;58572;48.110;19.838;2022-09-27T04:40:11;96457.94;;;9.71;87.81
70921;BME280;58572;48.110;19.838;2022-09-27T04:42:38;96464.81;;;9.77;87.39
70921;BME280;58572;48.110;19.838;2022-09-27T04:45:07;96456.69;;;9.77;86.98
70921;BME280;58572;48.110;19.838;2022-09-27T04:47:34;96466.28;;;9.83;87.13
70921;BME280;58572;48.110;19.838;2022-09-27T04:50:01;96461.47;;;9.80;87.52
70921;BME280;58572;48.110;19.838;2022-09-27T04:52:28;96460.84;;;9.83;87.13
70921;BME280;58572;48.110;19.838;2022-09-27T04:54:56;96452.06;;;9.77;87.13
70921;BME280;58572;48.110;19.838;2022-09-27T04:57:23;96462.31;;;9.89;87.04
70921;BME280;58572;48.110;19.838;2022-09-27T04:59:50;96461.22;;;9.90;86.65
70921;BME280;58572;48.110;19.838;2022-09-27T05:02:19;96455.16;;;9.93;86.56
70921;BME280;58572;48.110;19.838;2022-09-27T05:04:46;96457.38;;;9.91;87.40
70921;BME280;58572;48.110;19.838;2022-09-27T05:07:13;96450.19;;;9.95;87.26
70921;BME280;58572;48.110;19.838;2022-09-27T05:09:40;96452.91;;;9.95;87.29
70921;BME280;58572;48.110;19.838;2022-09-27T05:12:07;96456.13;;;9.97;87.56
70921;BME280;58572;48.110;19.838;2022-09-27T05:14:34;96446.53;;;9.91;87.75
70921;BME280;58572;48.110;19.838;2022-09-27T05:17:01;96450.19;;;9.95;87.92
70921;BME280;58572;48.110;19.838;2022-09-27T05:19:30;96451.50;;;9.98;87.69
70921;BME280;58572;48.110;19.838;2022-09-27T05:21:57;96445.75;;;9.99;87.63
70921;BME280;58572;48.110;19.838;2022-09-27T05:24:27;96442.53;;;9.97;88.42
70921;BME280;58572;48.110;19.838;2022-09-27T05:26:56;96445.44;;;10.01;87.72
70921;BME280;58572;48.110;19.838;2022-09-27T05:29:23;96447.03;;;10.02;87.51
70921;BME280;58572;48.110;19.838;2022-09-27T05:31:50;96448.94;;;10.01;87.01
70921;BME280;58572;48.110;19.838;2022-09-27T05:34:17;96443.50;;;10.01;87.24
70921;BME280;58572;48.110;19.838;2022-09-27T05:36:47;96440.00;;;10.01;87.17
70921;BME280;58572;48.110;19.838;2022-09-27T05:39:14;96447.03;;;10.02;87.30
70921;BME280;58572;48.110;19.838;2022-09-27T05:41:42;96445.59;;;10.04;87.51
70921;BME280;58572;48.110;19.838;2022-09-27T05:44:09;96444.91;;;9.90;89.50
70921;BME280;58572;48.110;19.838;2022-09-27T05:46:37;96447.19;;;10.05;88.00
70921;BME280;58572;48.110;19.838;2022-09-27T05:49:05;96437.13;;;10.06;88.66
70921;BME280;58572;48.110;19.838;2022-09-27T05:51:32;96440.81;;;10.01;92.21
70921;BME280;58572;48.110;19.838;2022-09-27T05:54:01;96446.44;;;10.13;90.85
70921;BME280;58572;48.110;19.838;2022-09-27T05:56:28;96448.66;;;10.11;92.47
70921;BME280;58572;48.110;19.838;2022-09-27T05:58:56;96440.03;;;10.09;92.39
70921;BME280;58572;48.110;19.838;2022-09-27T06:01:23;96447.06;;;10.10;91.78
70921;BME280;58572;48.110;19.838;2022-09-27T06:03:52;96444.38;;;10.19;91.94
70921;BME280;58572;48.110;19.838;2022-09-27T06:06:19;96429.66;;;10.11;92.22
70921;BME280;58572;48.110;19.838;2022-09-27T06:08:47;96435.78;;;10.26;91.48
70921;BME280;58572;48.110;19.838;2022-09-27T06:11:16;96437.53;;;10.30;91.39
70921;BME280;58572;48.110;19.838;2022-09-27T06:13:43;96440.25;;;10.30;91.07
70921;BME280;58572;48.110;19.838;2022-09-27T06:16:10;96368.25;;;9.76;92.06
70921;BME280;58572;48.110;19.838;2022-09-27T06:18:37;96429.06;;;10.32;92.00
70921;BME280;58572;48.110;19.838;2022-09-27T06:21:05;96424.16;;;10.42;89.48
70921;BME280;58572;48.110;19.838;2022-09-27T06:23:32;96433.81;;;10.17;91.73
70921;BME280;58572;48.110;19.838;2022-09-27T06:26:01;96424.28;;;10.37;91.93
70921;BME280;58572;48.110;19.838;2022-09-27T06:28:31;96420.28;;;10.35;92.16
70921;BME280;58572;48.110;19.838;2022-09-27T06:30:59;96425.13;;;10.46;90.84
70921;BME280;58572;48.110;19.838;2022-09-27T06:33:26;96424.03;;;10.56;90.73
70921;BME280;58572;48.110;19.838;2022-09-27T06:35:53;96425.47;;;10.62;91.10
70921;BME280;58572;48.110;19.838;2022-09-27T06:38:21;96428.19;;;10.62;91.09
70921;BME280;58572;48.110;19.838;2022-09-27T06:40:49;96416.03;;;10.68;91.14
70921;BME280;58572;48.110;19.838;2022-09-27T06:43:17;96406.28;;;10.76;90.89
70921;BME280;58572;48.110;19.838;2022-09-27T06:45:47;96415.06;;;10.64;92.40
70921;BME280;58572;48.110;19.838;2022-09-27T06:48:15;96411.88;;;10.71;91.21
70921;BME280;58572;48.110;19.838;2022-09-27T06:50:42;96411.56;;;10.72;92.16
70921;BME280;58572;48.110;19.838;2022-09-27T06:53:11;96412.50;;;10.76;91.16
70921;BME280;58572;48.110;19.838;2022-09-27T06:55:39;96406.75;;;10.78;91.07
70921;BME280;58572;48.110;19.838;2022-09-27T06:58:09;96410.59;;;10.85;91.13
70921;BME280;58572;48.110;19.838;2022-09-27T07:00:54;96387.09;;;10.64;90.57
70921;BME280;58572;48.110;19.838;2022-09-27T07:03:23;96415.38;;;10.88;90.38
70921;BME280;58572;48.110;19.838;2022-09-27T07:05:58;96372.88;;;10.58;91.13
70921;BME280;58572;48.110;19.838;2022-09-27T07:08:26;96416.34;;;10.93;91.22
70921;BME280;58572;48.110;19.838;2022-09-27T07:11:01;96369.03;;;10.59;91.64
70921;BME280;58572;48.110;19.838;2022-09-27T07:13:29;96412.50;;;10.94;91.49
70921;BME280;58572;48.110;19.838;2022-09-27T07:15:58;96426.56;;;10.96;91.57
70921;BME280;58572;48.110;19.838;2022-09-27T07:18:25;96426.09;;;10.94;91.52
70921;BME280;58572;48.110;19.838;2022-09-27T07:20:53;96422.41;;;10.90;92.07
70921;BME280;58572;48.110;19.838;2022-09-27T07:23:21;96434.75;;;10.78;92.04
70921;BME280;58572;48.110;19.838;2022-09-27T07:25:48;96426.09;;;10.94;91.02
70921;BME280;58572;48.110;19.838;2022-09-27T07:28:16;96425.59;;;11.09;91.32
70921;BME280;58572;48.110;19.838;2022-09-27T07:30:44;96423.34;;;11.11;91.01
70921;BME280;58572;48.110;19.838;2022-09-27T07:33:13;96423.66;;;11.18;90.74
70921;BME280;58572;48.110;19.838;2022-09-27T07:35:41;96428.31;;;11.17;91.53
70921;BME280;58572;48.110;19.838;2022-09-27T07:38:10;96427.00;;;11.24;90.40
70921;BME280;58572;48.110;19.838;2022-09-27T07:40:39;96431.66;;;11.23;91.41
70921;BME280;58572;48.110;19.838;2022-09-27T07:43:06;96433.41;;;11.28;91.58
70921;BME280;58572;48.110;19.838;2022-09-27T07:45:34;96441.56;;;11.19;92.44
70921;BME280;58572;48.110;19.838;2022-09-27T07:48:03;96434.38;;;11.23;91.13
70921;BME280;58572;48.110;19.838;2022-09-27T07:50:32;96432.13;;;11.16;91.83
70921;BME280;58572;48.110;19.838;2022-09-27T07:52:59;96421.09;;;11.13;91.09
70921;BME280;58572;48.110;19.838;2022-09-27T07:55:26;96434.84;;;11.25;91.07
70921;BME280;58572;48.110;19.838;2022-09-27T07:58:02;96427.34;;;11.22;92.04
70921;BME280;58572;48.110;19.838;2022-09-27T08:00:29;96428.25;;;11.35;90.86
70921;BME280;58572;48.110;19.838;2022-09-27T08:02:56;96425.06;;;11.33;90.69
70921;BME280;58572;48.110;19.838;2022-09-27T08:05:23;96434.34;;;11.32;92.75
70921;BME280;58572;48.110;19.838;2022-09-27T08:07:54;96437.69;;;11.37;91.38
70921;BME280;58572;48.110;19.838;2022-09-27T08:10:22;96436.75;;;11.33;91.83
70921;BME280;58572;48.110;19.838;2022-09-27T08:12:55;96435.78;;;11.46;91.48
70921;BME280;58572;48.110;19.838;2022-09-27T08:15:22;96436.41;;;11.52;91.04
70921;BME280;58572;48.110;19.838;2022-09-27T08:17:49;96431.59;;;11.58;91.16
70921;BME280;58572;48.110;19.838;2022-09-27T08:20:16;96430.31;;;11.55;91.44
70921;BME280;58572;48.110;19.838;2022-09-27T08:22:43;96434.00;;;11.50;90.91
70921;BME280;58572;48.110;19.838;2022-09-27T08:25:12;96416.56;;;11.51;90.93
70921;BME280;58572;48.110;19.838;2022-09-27T08:27:40;96299.81;;;10.65;91.72
70921;BME280;58572;48.110;19.838;2022-09-27T08:30:07;96417.50;;;11.56;91.63
70921;BME280;58572;48.110;19.838;2022-09-27T08:32:34;96408.38;;;11.60;92.01
70921;BME280;58572;48.110;19.838;2022-09-27T08:35:03;96416.03;;;11.67;91.59
70921;BME280;58572;48.110;19.838;2022-09-27T08:37:32;96421.63;;;11.79;90.74
70921;BME280;58572;48.110;19.838;2022-09-27T08:40:00;96424.16;;;11.84;90.23
70921;BME280;58572;48.110;19.838;2022-09-27T08:42:36;96420.31;;;11.85;91.50
70921;BME280;58572;48.110;19.838;2022-09-27T08:45:12;96417.06;;;11.92;91.89
70921;BME280;58572;48.110;19.838;2022-09-27T08:47:45;96415.81;;;11.89;91.14
70921;BME280;58572;48.110;19.838;2022-09-27T08:50:23;96373.88;;;11.73;90.27
70921;BME280;58572;48.110;19.838;2022-09-27T08:52:55;96407.06;;;12.04;90.27
70921;BME280;58572;48.110;19.838;2022-09-27T08:55:29;96401.09;;;12.11;90.53
70921;BME280;58572;48.110;19.838;2022-09-27T08:57:59;96402.84;;;12.15;90.66
70921;BME280;58572;48.110;19.838;2022-09-27T09:00:27;96409.88;;;12.17;92.05
70921;BME280;58572;48.110;19.838;2022-09-27T09:02:55;96415.72;;;12.06;92.18
70921;BME280;58572;48.110;19.838;2022-09-27T09:05:27;96410.13;;;12.03;92.69
70921;BME280;58572;48.110;19.838;2022-09-27T09:08:06;96401.25;;;12.14;91.13
70921;BME280;58572;48.110;19.838;2022-09-27T09:10:44;96409.19;;;11.99;91.87
70921;BME280;58572;48.110;19.838;2022-09-27T09:13:45;96402.03;;;12.15;92.74
70921;BME280;58572;48.110;19.838;2022-09-27T09:16:24;96405.25;;;12.38;91.27
70921;BME280;58572;48.110;19.838;2022-09-27T09:18:59;96405.41;;;12.41;91.33
70921;BME280;58572;48.110;19.838;2022-09-27T09:21:37;96394.81;;;12.40;90.56
70921;BME280;58572;48.110;19.838;2022-09-27T09:24:18;96396.06;;;12.51;90.49
70921;BME280;58572;48.110;19.838;2022-09-27T09:26:56;96399.97;;;12.62;90.90
70921;BME280;58572;48.110;19.838;2022-09-27T09:29:42;96394.19;;;12.64;89.91
70921;BME280;58572;48.110;19.838;2022-09-27T09:32:25;96389.34;;;12.69;89.79
70921;BME280;58572;48.110;19.838;2022-09-27T09:34:58;96387.88;;;12.72;89.58
70921;BME280;58572;48.110;19.838;2022-09-27T09:37:34;96378.75;;;12.89;89.16
70921;BME280;58572;48.110;19.838;2022-09-27T09:40:06;96350.84;;;12.71;88.72
70921;BME280;58572;48.110;19.838;2022-09-27T09:42:45;96370.84;;;13.08;89.15
70921;BME280;58572;48.110;19.838;2022-09-27T09:45:19;96375.00;;;12.93;89.79
70921;BME280;58572;48.110;19.838;2022-09-27T09:47:53;96376.56;;;12.82;88.46
70921;BME280;58572;48.110;19.838;2022-09-27T09:50:26;96373.91;;;12.73;88.92
70921;BME280;58572;48.110;19.838;2022-09-27T09:52:57;96372.09;;;12.77;89.05
70921;BME280;58572;48.110;19.838;2022-09-27T09:55:28;96363.72;;;12.83;88.51
70921;BME280;58572;48.110;19.838;2022-09-27T09:58:04;96358.72;;;12.85;88.88
70921;BME280;58572;48.110;19.838;2022-09-27T10:00:39;96363.50;;;12.88;88.76
70921;BME280;58572;48.110;19.838;2022-09-27T10:03:07;96355.63;;;13.07;88.20
70921;BME280;58572;48.110;19.838;2022-09-27T10:05:34;96350.69;;;13.21;87.77
70921;BME280;58572;48.110;19.838;2022-09-27T10:08:04;96239.34;;;12.57;87.53
70921;BME280;58572;48.110;19.838;2022-09-27T10:10:33;96343.66;;;13.45;88.11
70921;BME280;58572;48.110;19.838;2022-09-27T10:13:02;96334.13;;;13.51;86.80
70921;BME280;58572;48.110;19.838;2022-09-27T10:15:30;96336.88;;;13.63;84.29
70921;BME280;58572;48.110;19.838;2022-09-27T10:17:59;96347.59;;;13.68;85.75
70921;BME280;58572;48.110;19.838;2022-09-27T10:20:31;96337.69;;;13.76;85.55
70921;BME280;58572;48.110;19.838;2022-09-27T10:23:05;96344.19;;;13.71;85.67
70921;BME280;58572;48.110;19.838;2022-09-27T10:25:51;96334.16;;;13.75;85.65
70921;BME280;58572;48.110;19.838;2022-09-27T10:28:26;96329.84;;;13.62;85.39
70921;BME280;58572;48.110;19.838;2022-09-27T10:31:00;96227.94;;;12.88;85.50
70921;BME280;58572;48.110;19.838;2022-09-27T10:33:30;96325.72;;;13.80;85.54
70921;BME280;58572;48.110;19.838;2022-09-27T10:35:58;96320.84;;;13.86;86.09
70921;BME280;58572;48.110;19.838;2022-09-27T10:38:27;96331.19;;;13.68;85.74
70921;BME280;58572;48.110;19.838;2022-09-27T10:40:56;96346.56;;;13.60;85.59
70921;BME280;58572;48.110;19.838;2022-09-27T10:43:27;96335.19;;;13.58;84.89
70921;BME280;58572;48.110;19.838;2022-09-27T10:46:15;96336.88;;;13.75;86.18
70921;BME280;58572;48.110;19.838;2022-09-27T10:48:45;96323.69;;;13.77;85.63
70921;BME280;58572;48.110;19.838;2022-09-27T10:51:28;96292.63;;;13.57;87.31
70921;BME280;58572;48.110;19.838;2022-09-27T10:53:56;95936.84;;;11.30;84.81
70921;BME280;58572;48.110;19.838;2022-09-27T10:56:28;96320.72;;;13.82;84.68
70921;BME280;58572;48.110;19.838;2022-09-27T10:58:56;96311.16;;;14.00;85.50
70921;BME280;58572;48.110;19.838;2022-09-27T11:01:25;96308.31;;;13.97;86.29
70921;BME280;58572;48.110;19.838;2022-09-27T11:03:57;96305.91;;;14.07;85.99
70921;BME280;58572;48.110;19.838;2022-09-27T11:06:28;96293.38;;;14.06;85.28
70921;BME280;58572;48.110;19.838;2022-09-27T11:09:09;96300.66;;;14.15;84.49
70921;BME280;58572;48.110;19.838;2022-09-27T11:11:43;96281.31;;;13.95;84.64
70921;BME280;58572;48.110;19.838;2022-09-27T11:14:19;96289.66;;;13.87;83.82
70921;BME280;58572;48.110;19.838;2022-09-27T11:17:07;96282.16;;;13.84;85.25
70921;BME280;58572;48.110;19.838;2022-09-27T11:19:48;96269.06;;;13.77;85.25
70921;BME280;58572;48.110;19.838;2022-09-27T11:22:38;96275.78;;;13.67;84.63
70921;BME280;58572;48.110;19.838;2022-09-27T11:25:13;96277.38;;;13.68;85.55
70921;BME280;58572;48.110;19.838;2022-09-27T11:27:51;96270.22;;;13.64;84.94
70921;BME280;58572;48.110;19.838;2022-09-27T11:30:23;96271.81;;;13.65;84.94
70921;BME280;58572;48.110;19.838;2022-09-27T11:33:12;96261.78;;;13.69;84.76
70921;BME280;58572;48.110;19.838;2022-09-27T11:35:53;96258.72;;;13.70;84.78
70921;BME280;58572;48.110;19.838;2022-09-27T11:38:27;96258.81;;;13.74;84.11
70921;BME280;58572;48.110;19.838;2022-09-27T11:41:06;96259.06;;;13.69;84.67
70921;BME280;58572;48.110;19.838;2022-09-27T11:43:51;96255.28;;;13.73;84.08
70921;BME280;58572;48.110;19.838;2022-09-27T11:46:28;96203.06;;;13.51;83.22
70921;BME280;58572;48.110;19.838;2022-09-27T11:52:01;96244.94;;;14.19;81.91
70921;BME280;58572;48.110;19.838;2022-09-27T11:54:57;96239.22;;;13.96;83.19
70921;BME280;58572;48.110;19.838;2022-09-27T11:57:31;96250.34;;;14.03;83.49
70921;BME280;58572;48.110;19.838;2022-09-27T12:00:19;96224.66;;;13.80;83.41
70921;BME280;58572;48.110;19.838;2022-09-27T12:03:17;96242.88;;;13.88;83.09
70921;BME280;58572;48.110;19.838;2022-09-27T12:05:56;96239.09;;;13.93;83.04
70921;BME280;58572;48.110;19.838;2022-09-27T12:08:35;96234.16;;;14.11;83.22
70921;BME280;58572;48.110;19.838;2022-09-27T12:11:13;96238.44;;;14.24;82.26
70921;BME280;58572;48.110;19.838;2022-09-27T12:13:47;96228.59;;;14.35;81.72
70921;BME280;58572;48.110;19.838;2022-09-27T12:16:16;96219.84;;;14.29;82.51
70921;BME280;58572;48.110;19.838;2022-09-27T12:18:46;96218.00;;;14.46;81.47
70921;BME280;58572;48.110;19.838;2022-09-27T12:21:15;96223.56;;;14.37;82.02
70921;BME280;58572;48.110;19.838;2022-09-27T12:23:46;96184.28;;;14.14;82.40
70921;BME280;58572;48.110;19.838;2022-09-27T12:26:17;96150.84;;;13.64;81.01
70921;BME280;58572;48.110;19.838;2022-09-27T12:28:50;96139.72;;;13.57;81.93
70921;BME280;58572;48.110;19.838;2022-09-27T12:31:21;96202.06;;;14.07;81.77
70921;BME280;58572;48.110;19.838;2022-09-27T12:34:01;96193.94;;;13.83;81.70
70921;BME280;58572;48.110;19.838;2022-09-27T12:36:32;96207.63;;;13.71;81.83
70921;BME280;58572;48.110;19.838;2022-09-27T12:39:08;96212.16;;;13.79;81.45
70921;BME280;58572;48.110;19.838;2022-09-27T12:41:41;96206.47;;;13.72;82.87
70921;BME280;58572;48.110;19.838;2022-09-27T12:44:10;96205.72;;;13.59;83.36
70921;BME280;58572;48.110;19.838;2022-09-27T12:46:49;96203.66;;;13.32;83.53
70921;BME280;58572;48.110;19.838;2022-09-27T12:49:24;96206.72;;;13.42;83.48
70921;BME280;58572;48.110;19.838;2022-09-27T12:51:56;96207.41;;;13.52;83.04
70921;BME280;58572;48.110;19.838;2022-09-27T12:54:50;96201.94;;;13.52;83.35
70921;BME280;58572;48.110;19.838;2022-09-27T12:57:31;96199.56;;;13.50;83.00
70921;BME280;58572;48.110;19.838;2022-09-27T13:00:10;96197.63;;;13.38;84.28
70921;BME280;58572;48.110;19.838;2022-09-27T13:06:07;96179.75;;;13.65;82.84
70921;BME280;58572;48.110;19.838;2022-09-27T13:08:57;96191.41;;;13.90;82.48
70921;BME280;58572;48.110;19.838;2022-09-27T13:11:38;96141.16;;;13.79;82.14
70921;BME280;58572;48.110;19.838;2022-09-27T13:14:16;96168.47;;;14.35;81.07
70921;BME280;58572;48.110;19.838;2022-09-27T13:16:45;96173.66;;;14.40;81.79
70921;BME280;58572;48.110;19.838;2022-09-27T13:19:39;96168.06;;;14.21;81.06
70921;BME280;58572;48.110;19.838;2022-09-27T13:22:08;96125.94;;;13.94;80.75
70921;BME280;58572;48.110;19.838;2022-09-27T13:24:43;96174.97;;;13.62;82.43
70921;BME280;58572;48.110;19.838;2022-09-27T13:27:38;96178.97;;;13.65;82.84
70921;BME280;58572;48.110;19.838;2022-09-27T13:33:38;96181.75;;;13.81;82.42